Skip Navigation Links Skip Navigation Links

Current Weather

Alert, Nunavut

For information only: do not use for flight planning or navigation.
Latest weather
Observation time Monday, September 25, 2017 3:00 PM EDT
Local time Monday, September 25, 2017 6:29 PM EDT
Flight conditions Instrument Meteorological Conditions
Winds
Wind direction West-Southwest (240°)
Wind speed 7 mph
Visibility 4 mi.
Present weather mist
Sky condition
Ceiling 500 ft. overcast
Cloud layer overcast 500 ft.
Temperature 7°F
Dewpoint 5°F
Altimeter 29.98 in.Hg
Derived measurements
Relative humidity 92%
Wind chill -5°F
Density altitude -3695 ft.
Sea-level pressure 29.99 in.Hg
Remarks
Last observation of the day.
METAR CYLT 251900Z 24006KT 4SM BR OVC005 M14/M15 A2998 RMK ST8 LAST OBS/NEXT 261200 UTC OBS SENT VIA CYCX SLP157

Settings

Location code

InnerDrive.Weather 4.0.6144.1 Release CLR 4.0.30319.36366
Copyright ©2015 Inner Drive Technology. All rights reserved. Portions Copyright ©1986-2015 David Braverman.

Find weather

Site navigation


Skip Navigation Links

Place info

Page info

PayPal - The safer, easier way to pay online!

Return home.

Copyright ©2017 Inner Drive Technology. Purveyors of fine, hand-crafted computer software. Page printed 2017-09-25T22:29:27 UTC.